sensor_id;sensor_type;location;lat;lon;timestamp;P1;durP1;ratioP1;P2;durP2;ratioP2
32445;SDS011;18899;50.748;7.102;2022-10-19T00:01:37;129.25;;;14.90;;
32445;SDS011;18899;50.748;7.102;2022-10-19T00:04:03;160.05;;;16.13;;
32445;SDS011;18899;50.748;7.102;2022-10-19T00:06:30;64.53;;;15.25;;
32445;SDS011;18899;50.748;7.102;2022-10-19T00:08:58;98.13;;;16.33;;
32445;SDS011;18899;50.748;7.102;2022-10-19T00:11:32;104.95;;;14.88;;
32445;SDS011;18899;50.748;7.102;2022-10-19T00:13:59;94.13;;;16.00;;
32445;SDS011;18899;50.748;7.102;2022-10-19T00:16:26;126.65;;;16.63;;
32445;SDS011;18899;50.748;7.102;2022-10-19T00:19:01;85.53;;;16.65;;
32445;SDS011;18899;50.748;7.102;2022-10-19T00:21:29;107.63;;;16.48;;
32445;SDS011;18899;50.748;7.102;2022-10-19T00:23:55;93.70;;;17.42;;
32445;SDS011;18899;50.748;7.102;2022-10-19T00:26:20;116.13;;;16.73;;
32445;SDS011;18899;50.748;7.102;2022-10-19T00:28:46;75.35;;;15.88;;
32445;SDS011;18899;50.748;7.102;2022-10-19T00:31:14;140.70;;;15.00;;
32445;SDS011;18899;50.748;7.102;2022-10-19T00:33:41;75.65;;;16.65;;
32445;SDS011;18899;50.748;7.102;2022-10-19T00:36:20;148.85;;;16.38;;
32445;SDS011;18899;50.748;7.102;2022-10-19T00:38:48;84.18;;;15.60;;
32445;SDS011;18899;50.748;7.102;2022-10-19T00:41:14;75.47;;;15.27;;
32445;SDS011;18899;50.748;7.102;2022-10-19T00:46:51;81.75;;;13.60;;
32445;SDS011;18899;50.748;7.102;2022-10-19T00:49:19;81.75;;;14.55;;
32445;SDS011;18899;50.748;7.102;2022-10-19T00:51:51;35.70;;;12.27;;
32445;SDS011;18899;50.748;7.102;2022-10-19T00:54:19;41.67;;;12.52;;
32445;SDS011;18899;50.748;7.102;2022-10-19T00:56:46;39.17;;;13.48;;
32445;SDS011;18899;50.748;7.102;2022-10-19T00:59:15;51.13;;;12.00;;
32445;SDS011;18899;50.748;7.102;2022-10-19T01:01:44;39.78;;;12.80;;
32445;SDS011;18899;50.748;7.102;2022-10-19T01:04:11;96.70;;;12.68;;
32445;SDS011;18899;50.748;7.102;2022-10-19T01:06:37;77.78;;;12.13;;
32445;SDS011;18899;50.748;7.102;2022-10-19T01:09:04;69.85;;;12.70;;
32445;SDS011;18899;50.748;7.102;2022-10-19T01:11:34;95.63;;;13.10;;
32445;SDS011;18899;50.748;7.102;2022-10-19T01:14:10;70.22;;;11.63;;
32445;SDS011;18899;50.748;7.102;2022-10-19T01:32:58;31.35;;;9.18;;
32445;SDS011;18899;50.748;7.102;2022-10-19T01:44:14;39.75;;;9.15;;
32445;SDS011;18899;50.748;7.102;2022-10-19T01:46:17;60.75;;;10.80;;
32445;SDS011;18899;50.748;7.102;2022-10-19T01:48:53;87.85;;;10.30;;
32445;SDS011;18899;50.748;7.102;2022-10-19T01:51:25;83.03;;;10.07;;
32445;SDS011;18899;50.748;7.102;2022-10-19T01:53:56;65.65;;;10.15;;
32445;SDS011;18899;50.748;7.102;2022-10-19T01:56:26;59.42;;;10.55;;
32445;SDS011;18899;50.748;7.102;2022-10-19T01:58:55;66.70;;;9.98;;
32445;SDS011;18899;50.748;7.102;2022-10-19T02:01:24;62.42;;;10.77;;
32445;SDS011;18899;50.748;7.102;2022-10-19T02:03:53;33.35;;;9.35;;
32445;SDS011;18899;50.748;7.102;2022-10-19T02:06:20;37.65;;;9.88;;
32445;SDS011;18899;50.748;7.102;2022-10-19T02:08:47;50.10;;;10.32;;
32445;SDS011;18899;50.748;7.102;2022-10-19T02:11:15;37.30;;;10.40;;
32445;SDS011;18899;50.748;7.102;2022-10-19T02:13:42;39.83;;;11.30;;
32445;SDS011;18899;50.748;7.102;2022-10-19T02:16:13;51.78;;;11.30;;
32445;SDS011;18899;50.748;7.102;2022-10-19T02:18:46;63.42;;;11.98;;
32445;SDS011;18899;50.748;7.102;2022-10-19T02:21:14;24.58;;;11.23;;
32445;SDS011;18899;50.748;7.102;2022-10-19T02:23:40;40.78;;;11.73;;
32445;SDS011;18899;50.748;7.102;2022-10-19T02:26:06;34.03;;;11.85;;
32445;SDS011;18899;50.748;7.102;2022-10-19T02:28:32;154.43;;;13.35;;
32445;SDS011;18899;50.748;7.102;2022-10-19T02:30:58;57.92;;;11.00;;
32445;SDS011;18899;50.748;7.102;2022-10-19T02:33:24;28.45;;;11.20;;
32445;SDS011;18899;50.748;7.102;2022-10-19T02:35:51;40.58;;;10.20;;
32445;SDS011;18899;50.748;7.102;2022-10-19T02:38:18;31.13;;;9.75;;
32445;SDS011;18899;50.748;7.102;2022-10-19T02:40:48;24.75;;;10.80;;
32445;SDS011;18899;50.748;7.102;2022-10-19T02:43:21;27.15;;;10.25;;
32445;SDS011;18899;50.748;7.102;2022-10-19T02:45:58;56.60;;;11.05;;
32445;SDS011;18899;50.748;7.102;2022-10-19T02:48:28;36.53;;;9.40;;
32445;SDS011;18899;50.748;7.102;2022-10-19T02:50:56;39.38;;;9.27;;
32445;SDS011;18899;50.748;7.102;2022-10-19T02:53:21;49.03;;;9.10;;
32445;SDS011;18899;50.748;7.102;2022-10-19T02:55:47;52.35;;;9.30;;
32445;SDS011;18899;50.748;7.102;2022-10-19T02:58:13;48.00;;;9.50;;
32445;SDS011;18899;50.748;7.102;2022-10-19T03:00:39;37.00;;;8.80;;
32445;SDS011;18899;50.748;7.102;2022-10-19T03:03:04;23.58;;;9.68;;
32445;SDS011;18899;50.748;7.102;2022-10-19T03:05:30;28.77;;;9.73;;
32445;SDS011;18899;50.748;7.102;2022-10-19T03:07:56;37.30;;;8.27;;
32445;SDS011;18899;50.748;7.102;2022-10-19T03:10:21;37.40;;;10.13;;
32445;SDS011;18899;50.748;7.102;2022-10-19T03:12:47;22.02;;;9.60;;
32445;SDS011;18899;50.748;7.102;2022-10-19T03:15:14;27.77;;;9.30;;
32445;SDS011;18899;50.748;7.102;2022-10-19T03:17:40;19.40;;;10.13;;
32445;SDS011;18899;50.748;7.102;2022-10-19T03:20:06;18.73;;;9.27;;
32445;SDS011;18899;50.748;7.102;2022-10-19T03:22:32;18.27;;;10.02;;
32445;SDS011;18899;50.748;7.102;2022-10-19T03:24:58;20.42;;;9.20;;
32445;SDS011;18899;50.748;7.102;2022-10-19T03:27:23;27.25;;;9.95;;
32445;SDS011;18899;50.748;7.102;2022-10-19T03:29:49;25.17;;;10.20;;
32445;SDS011;18899;50.748;7.102;2022-10-19T03:32:14;21.67;;;9.93;;
32445;SDS011;18899;50.748;7.102;2022-10-19T03:34:40;24.20;;;10.77;;
32445;SDS011;18899;50.748;7.102;2022-10-19T03:37:05;23.05;;;10.20;;
32445;SDS011;18899;50.748;7.102;2022-10-19T03:39:32;23.58;;;10.05;;
32445;SDS011;18899;50.748;7.102;2022-10-19T03:41:58;28.58;;;10.30;;
32445;SDS011;18899;50.748;7.102;2022-10-19T03:44:23;16.20;;;8.63;;
32445;SDS011;18899;50.748;7.102;2022-10-19T03:46:49;20.02;;;9.45;;
32445;SDS011;18899;50.748;7.102;2022-10-19T03:49:14;34.65;;;10.57;;
32445;SDS011;18899;50.748;7.102;2022-10-19T03:51:40;23.75;;;10.35;;
32445;SDS011;18899;50.748;7.102;2022-10-19T03:54:06;35.33;;;10.00;;
32445;SDS011;18899;50.748;7.102;2022-10-19T03:56:35;25.77;;;9.93;;
32445;SDS011;18899;50.748;7.102;2022-10-19T03:59:01;36.83;;;9.70;;
32445;SDS011;18899;50.748;7.102;2022-10-19T04:01:30;72.60;;;9.25;;
32445;SDS011;18899;50.748;7.102;2022-10-19T04:04:02;46.90;;;9.43;;
32445;SDS011;18899;50.748;7.102;2022-10-19T04:06:31;60.20;;;9.93;;
32445;SDS011;18899;50.748;7.102;2022-10-19T04:09:01;74.68;;;10.13;;
32445;SDS011;18899;50.748;7.102;2022-10-19T04:11:28;50.20;;;9.40;;
32445;SDS011;18899;50.748;7.102;2022-10-19T04:13:55;54.05;;;9.55;;
32445;SDS011;18899;50.748;7.102;2022-10-19T04:16:21;47.22;;;10.27;;
32445;SDS011;18899;50.748;7.102;2022-10-19T04:18:49;23.80;;;9.40;;
32445;SDS011;18899;50.748;7.102;2022-10-19T04:21:19;20.70;;;9.85;;
32445;SDS011;18899;50.748;7.102;2022-10-19T04:23:45;23.42;;;8.98;;
32445;SDS011;18899;50.748;7.102;2022-10-19T04:26:10;30.33;;;8.52;;
32445;SDS011;18899;50.748;7.102;2022-10-19T04:28:36;40.53;;;9.27;;
32445;SDS011;18899;50.748;7.102;2022-10-19T04:31:03;34.25;;;8.60;;
32445;SDS011;18899;50.748;7.102;2022-10-19T04:33:29;23.13;;;7.53;;
32445;SDS011;18899;50.748;7.102;2022-10-19T04:35:58;47.67;;;8.65;;
32445;SDS011;18899;50.748;7.102;2022-10-19T04:38:25;39.03;;;8.65;;
32445;SDS011;18899;50.748;7.102;2022-10-19T04:40:51;27.10;;;8.10;;
32445;SDS011;18899;50.748;7.102;2022-10-19T04:43:17;30.13;;;9.00;;
32445;SDS011;18899;50.748;7.102;2022-10-19T04:45:42;58.95;;;10.02;;
32445;SDS011;18899;50.748;7.102;2022-10-19T04:48:08;71.30;;;10.13;;
32445;SDS011;18899;50.748;7.102;2022-10-19T04:50:33;45.17;;;9.60;;
32445;SDS011;18899;50.748;7.102;2022-10-19T04:52:59;24.08;;;8.77;;
32445;SDS011;18899;50.748;7.102;2022-10-19T04:55:24;26.17;;;9.60;;
32445;SDS011;18899;50.748;7.102;2022-10-19T04:57:50;28.30;;;9.80;;
32445;SDS011;18899;50.748;7.102;2022-10-19T05:00:15;29.45;;;9.38;;
32445;SDS011;18899;50.748;7.102;2022-10-19T05:02:42;38.17;;;8.90;;
32445;SDS011;18899;50.748;7.102;2022-10-19T05:05:11;30.20;;;9.43;;
32445;SDS011;18899;50.748;7.102;2022-10-19T05:07:38;40.42;;;9.70;;
32445;SDS011;18899;50.748;7.102;2022-10-19T05:10:04;27.33;;;8.93;;
32445;SDS011;18899;50.748;7.102;2022-10-19T05:12:30;28.73;;;9.63;;
32445;SDS011;18899;50.748;7.102;2022-10-19T05:14:55;25.52;;;9.98;;
32445;SDS011;18899;50.748;7.102;2022-10-19T05:17:21;37.97;;;9.43;;
32445;SDS011;18899;50.748;7.102;2022-10-19T05:19:47;30.27;;;9.32;;
32445;SDS011;18899;50.748;7.102;2022-10-19T05:22:12;46.70;;;9.60;;
32445;SDS011;18899;50.748;7.102;2022-10-19T05:24:37;35.03;;;10.18;;
32445;SDS011;18899;50.748;7.102;2022-10-19T05:27:03;37.97;;;10.38;;
32445;SDS011;18899;50.748;7.102;2022-10-19T05:29:28;46.15;;;10.30;;
32445;SDS011;18899;50.748;7.102;2022-10-19T05:31:54;40.95;;;10.93;;
32445;SDS011;18899;50.748;7.102;2022-10-19T05:34:20;37.25;;;10.52;;
32445;SDS011;18899;50.748;7.102;2022-10-19T05:36:45;33.72;;;9.98;;
32445;SDS011;18899;50.748;7.102;2022-10-19T05:39:12;40.15;;;10.60;;
32445;SDS011;18899;50.748;7.102;2022-10-19T05:41:41;28.35;;;9.23;;
32445;SDS011;18899;50.748;7.102;2022-10-19T05:44:09;27.00;;;10.57;;
32445;SDS011;18899;50.748;7.102;2022-10-19T05:46:40;35.67;;;11.43;;
32445;SDS011;18899;50.748;7.102;2022-10-19T05:49:06;35.72;;;11.43;;
32445;SDS011;18899;50.748;7.102;2022-10-19T05:51:32;34.05;;;10.43;;
32445;SDS011;18899;50.748;7.102;2022-10-19T05:53:57;26.98;;;10.38;;
32445;SDS011;18899;50.748;7.102;2022-10-19T05:56:24;22.13;;;9.38;;
32445;SDS011;18899;50.748;7.102;2022-10-19T05:58:51;31.25;;;10.73;;
32445;SDS011;18899;50.748;7.102;2022-10-19T06:01:18;21.13;;;8.95;;
32445;SDS011;18899;50.748;7.102;2022-10-19T06:03:44;26.67;;;9.60;;
32445;SDS011;18899;50.748;7.102;2022-10-19T06:06:11;21.95;;;9.27;;
32445;SDS011;18899;50.748;7.102;2022-10-19T06:08:36;27.65;;;9.85;;
32445;SDS011;18899;50.748;7.102;2022-10-19T06:11:04;19.92;;;8.60;;
32445;SDS011;18899;50.748;7.102;2022-10-19T06:13:29;30.13;;;9.05;;
32445;SDS011;18899;50.748;7.102;2022-10-19T06:15:55;21.15;;;8.40;;
32445;SDS011;18899;50.748;7.102;2022-10-19T06:18:20;24.67;;;9.15;;
32445;SDS011;18899;50.748;7.102;2022-10-19T06:20:50;17.70;;;7.75;;
32445;SDS011;18899;50.748;7.102;2022-10-19T06:23:16;30.30;;;8.25;;
32445;SDS011;18899;50.748;7.102;2022-10-19T06:25:41;16.70;;;7.80;;
32445;SDS011;18899;50.748;7.102;2022-10-19T06:28:07;18.70;;;8.82;;
32445;SDS011;18899;50.748;7.102;2022-10-19T06:30:36;22.80;;;9.30;;
32445;SDS011;18899;50.748;7.102;2022-10-19T06:33:03;19.05;;;7.88;;
32445;SDS011;18899;50.748;7.102;2022-10-19T06:35:28;15.23;;;6.68;;
32445;SDS011;18899;50.748;7.102;2022-10-19T06:37:57;25.67;;;9.48;;
32445;SDS011;18899;50.748;7.102;2022-10-19T06:40:23;21.95;;;8.32;;
32445;SDS011;18899;50.748;7.102;2022-10-19T06:42:48;17.67;;;8.07;;
32445;SDS011;18899;50.748;7.102;2022-10-19T06:45:14;22.15;;;7.85;;
32445;SDS011;18899;50.748;7.102;2022-10-19T06:47:40;19.15;;;7.78;;
32445;SDS011;18899;50.748;7.102;2022-10-19T06:50:06;22.58;;;7.65;;
32445;SDS011;18899;50.748;7.102;2022-10-19T06:52:32;16.60;;;7.43;;
32445;SDS011;18899;50.748;7.102;2022-10-19T06:54:59;21.35;;;8.60;;
32445;SDS011;18899;50.748;7.102;2022-10-19T06:57:24;22.33;;;8.43;;
32445;SDS011;18899;50.748;7.102;2022-10-19T06:59:50;19.75;;;8.93;;
32445;SDS011;18899;50.748;7.102;2022-10-19T07:02:15;21.45;;;8.07;;
32445;SDS011;18899;50.748;7.102;2022-10-19T07:04:41;24.65;;;8.43;;
32445;SDS011;18899;50.748;7.102;2022-10-19T07:07:07;23.75;;;8.35;;
32445;SDS011;18899;50.748;7.102;2022-10-19T07:09:33;23.55;;;8.73;;
32445;SDS011;18899;50.748;7.102;2022-10-19T07:11:59;18.10;;;7.72;;
32445;SDS011;18899;50.748;7.102;2022-10-19T07:14:24;25.30;;;7.82;;
32445;SDS011;18899;50.748;7.102;2022-10-19T07:16:52;25.08;;;7.40;;
32445;SDS011;18899;50.748;7.102;2022-10-19T07:19:18;23.55;;;7.78;;
32445;SDS011;18899;50.748;7.102;2022-10-19T07:21:44;20.00;;;7.70;;
32445;SDS011;18899;50.748;7.102;2022-10-19T07:24:09;21.45;;;8.13;;
32445;SDS011;18899;50.748;7.102;2022-10-19T07:26:35;18.45;;;8.15;;
32445;SDS011;18899;50.748;7.102;2022-10-19T07:29:02;16.88;;;7.22;;
32445;SDS011;18899;50.748;7.102;2022-10-19T07:31:29;20.70;;;6.82;;
32445;SDS011;18899;50.748;7.102;2022-10-19T07:33:57;16.05;;;6.20;;
32445;SDS011;18899;50.748;7.102;2022-10-19T07:36:25;15.65;;;6.90;;
32445;SDS011;18899;50.748;7.102;2022-10-19T07:38:52;20.00;;;7.20;;
32445;SDS011;18899;50.748;7.102;2022-10-19T07:41:18;13.90;;;7.35;;
32445;SDS011;18899;50.748;7.102;2022-10-19T07:43:45;17.25;;;7.55;;
32445;SDS011;18899;50.748;7.102;2022-10-19T07:46:12;17.63;;;8.25;;
32445;SDS011;18899;50.748;7.102;2022-10-19T07:48:39;15.52;;;6.70;;
32445;SDS011;18899;50.748;7.102;2022-10-19T07:51:07;11.20;;;6.00;;
32445;SDS011;18899;50.748;7.102;2022-10-19T07:53:34;13.32;;;5.25;;
32445;SDS011;18899;50.748;7.102;2022-10-19T07:58:29;11.45;;;5.43;;
32445;SDS011;18899;50.748;7.102;2022-10-19T08:01:02;11.88;;;6.32;;
32445;SDS011;18899;50.748;7.102;2022-10-19T08:03:33;9.73;;;5.38;;
32445;SDS011;18899;50.748;7.102;2022-10-19T08:06:00;9.88;;;6.07;;
32445;SDS011;18899;50.748;7.102;2022-10-19T08:08:27;10.73;;;5.57;;
32445;SDS011;18899;50.748;7.102;2022-10-19T08:10:53;8.30;;;5.20;;
32445;SDS011;18899;50.748;7.102;2022-10-19T08:13:19;12.02;;;5.60;;
32445;SDS011;18899;50.748;7.102;2022-10-19T08:15:44;11.80;;;6.28;;
32445;SDS011;18899;50.748;7.102;2022-10-19T08:18:11;12.57;;;6.60;;
32445;SDS011;18899;50.748;7.102;2022-10-19T08:20:40;14.43;;;6.47;;
32445;SDS011;18899;50.748;7.102;2022-10-19T08:23:08;15.90;;;7.35;;
32445;SDS011;18899;50.748;7.102;2022-10-19T08:25:35;14.45;;;7.47;;
32445;SDS011;18899;50.748;7.102;2022-10-19T08:28:01;15.18;;;8.38;;
32445;SDS011;18899;50.748;7.102;2022-10-19T08:30:27;17.02;;;8.63;;
32445;SDS011;18899;50.748;7.102;2022-10-19T08:32:53;23.50;;;10.00;;
32445;SDS011;18899;50.748;7.102;2022-10-19T08:35:19;23.35;;;10.38;;
32445;SDS011;18899;50.748;7.102;2022-10-19T08:37:44;18.77;;;10.00;;
32445;SDS011;18899;50.748;7.102;2022-10-19T08:40:20;20.33;;;10.10;;
32445;SDS011;18899;50.748;7.102;2022-10-19T08:43:03;20.23;;;9.73;;
32445;SDS011;18899;50.748;7.102;2022-10-19T08:45:41;18.05;;;9.40;;
32445;SDS011;18899;50.748;7.102;2022-10-19T08:51:00;15.50;;;8.45;;
32445;SDS011;18899;50.748;7.102;2022-10-19T08:56:33;17.63;;;8.45;;
32445;SDS011;18899;50.748;7.102;2022-10-19T08:59:24;19.10;;;9.55;;
32445;SDS011;18899;50.748;7.102;2022-10-19T09:01:58;14.63;;;8.52;;
32445;SDS011;18899;50.748;7.102;2022-10-19T09:04:34;17.35;;;8.88;;
32445;SDS011;18899;50.748;7.102;2022-10-19T09:07:09;12.00;;;7.10;;
32445;SDS011;18899;50.748;7.102;2022-10-19T09:10:39;17.75;;;8.00;;
32445;SDS011;18899;50.748;7.102;2022-10-19T09:15:16;13.93;;;7.80;;
32445;SDS011;18899;50.748;7.102;2022-10-19T09:17:45;15.27;;;8.15;;
32445;SDS011;18899;50.748;7.102;2022-10-19T09:20:15;14.43;;;8.10;;
32445;SDS011;18899;50.748;7.102;2022-10-19T09:22:44;18.67;;;8.18;;
32445;SDS011;18899;50.748;7.102;2022-10-19T09:25:12;17.80;;;9.18;;
32445;SDS011;18899;50.748;7.102;2022-10-19T09:27:43;15.45;;;8.30;;
32445;SDS011;18899;50.748;7.102;2022-10-19T09:30:16;15.23;;;8.85;;
32445;SDS011;18899;50.748;7.102;2022-10-19T09:32:47;14.80;;;8.05;;
32445;SDS011;18899;50.748;7.102;2022-10-19T09:35:27;14.05;;;8.00;;
32445;SDS011;18899;50.748;7.102;2022-10-19T09:37:57;15.63;;;7.70;;
32445;SDS011;18899;50.748;7.102;2022-10-19T09:40:24;13.32;;;7.43;;
32445;SDS011;18899;50.748;7.102;2022-10-19T09:42:52;12.98;;;6.03;;
32445;SDS011;18899;50.748;7.102;2022-10-19T09:45:39;11.23;;;5.50;;
32445;SDS011;18899;50.748;7.102;2022-10-19T09:48:27;9.15;;;5.43;;
32445;SDS011;18899;50.748;7.102;2022-10-19T09:51:00;12.30;;;6.15;;
32445;SDS011;18899;50.748;7.102;2022-10-19T09:53:34;10.88;;;5.78;;
32445;SDS011;18899;50.748;7.102;2022-10-19T09:56:06;7.25;;;4.85;;
32445;SDS011;18899;50.748;7.102;2022-10-19T09:58:33;7.32;;;5.10;;
32445;SDS011;18899;50.748;7.102;2022-10-19T10:01:00;7.70;;;4.78;;
32445;SDS011;18899;50.748;7.102;2022-10-19T10:03:30;6.47;;;4.38;;
32445;SDS011;18899;50.748;7.102;2022-10-19T10:06:06;8.77;;;4.00;;
32445;SDS011;18899;50.748;7.102;2022-10-19T10:08:35;8.55;;;3.63;;
32445;SDS011;18899;50.748;7.102;2022-10-19T10:13:42;7.70;;;4.03;;
32445;SDS011;18899;50.748;7.102;2022-10-19T10:16:13;9.55;;;4.53;;
32445;SDS011;18899;50.748;7.102;2022-10-19T10:21:20;10.27;;;5.10;;
32445;SDS011;18899;50.748;7.102;2022-10-19T10:26:41;10.23;;;5.00;;
32445;SDS011;18899;50.748;7.102;2022-10-19T10:29:22;7.22;;;4.43;;
32445;SDS011;18899;50.748;7.102;2022-10-19T10:37:04;8.35;;;3.83;;
32445;SDS011;18899;50.748;7.102;2022-10-19T10:39:38;7.53;;;3.67;;
32445;SDS011;18899;50.748;7.102;2022-10-19T10:42:08;9.95;;;4.45;;
32445;SDS011;18899;50.748;7.102;2022-10-19T10:44:42;10.18;;;4.20;;
32445;SDS011;18899;50.748;7.102;2022-10-19T10:47:12;12.73;;;5.28;;
32445;SDS011;18899;50.748;7.102;2022-10-19T10:49:40;8.68;;;4.13;;
32445;SDS011;18899;50.748;7.102;2022-10-19T10:52:11;8.85;;;4.25;;
32445;SDS011;18899;50.748;7.102;2022-10-19T10:54:39;8.00;;;3.63;;
32445;SDS011;18899;50.748;7.102;2022-10-19T10:57:21;10.40;;;4.40;;
32445;SDS011;18899;50.748;7.102;2022-10-19T11:02:57;8.50;;;3.38;;
32445;SDS011;18899;50.748;7.102;2022-10-19T11:05:55;10.50;;;3.97;;
32445;SDS011;18899;50.748;7.102;2022-10-19T11:08:43;14.13;;;4.32;;
32445;SDS011;18899;50.748;7.102;2022-10-19T11:14:03;8.88;;;3.92;;
32445;SDS011;18899;50.748;7.102;2022-10-19T11:16:46;15.52;;;3.92;;
32445;SDS011;18899;50.748;7.102;2022-10-19T11:19:18;8.70;;;4.13;;
32445;SDS011;18899;50.748;7.102;2022-10-19T11:30:50;10.35;;;3.38;;
32445;SDS011;18899;50.748;7.102;2022-10-19T11:50:44;8.00;;;3.20;;
32445;SDS011;18899;50.748;7.102;2022-10-19T12:00:56;7.07;;;2.90;;
32445;SDS011;18899;50.748;7.102;2022-10-19T12:03:40;7.57;;;2.97;;
32445;SDS011;18899;50.748;7.102;2022-10-19T12:06:26;5.72;;;2.97;;
32445;SDS011;18899;50.748;7.102;2022-10-19T12:09:19;7.47;;;3.13;;
32445;SDS011;18899;50.748;7.102;2022-10-19T12:11:50;11.43;;;3.25;;
32445;SDS011;18899;50.748;7.102;2022-10-19T12:14:21;9.68;;;2.70;;
32445;SDS011;18899;50.748;7.102;2022-10-19T12:16:52;8.40;;;3.47;;
32445;SDS011;18899;50.748;7.102;2022-10-19T12:19:21;7.00;;;2.78;;
32445;SDS011;18899;50.748;7.102;2022-10-19T12:21:50;7.95;;;3.22;;
32445;SDS011;18899;50.748;7.102;2022-10-19T12:24:19;6.05;;;2.65;;
32445;SDS011;18899;50.748;7.102;2022-10-19T12:26:48;8.80;;;3.20;;
32445;SDS011;18899;50.748;7.102;2022-10-19T12:29:16;13.80;;;2.97;;
32445;SDS011;18899;50.748;7.102;2022-10-19T12:31:46;9.27;;;2.92;;
32445;SDS011;18899;50.748;7.102;2022-10-19T12:37:25;6.70;;;3.20;;
32445;SDS011;18899;50.748;7.102;2022-10-19T12:42:58;5.43;;;3.00;;
32445;SDS011;18899;50.748;7.102;2022-10-19T12:45:32;10.93;;;3.00;;
32445;SDS011;18899;50.748;7.102;2022-10-19T12:53:22;4.68;;;2.78;;
32445;SDS011;18899;50.748;7.102;2022-10-19T12:58:31;13.18;;;4.25;;
32445;SDS011;18899;50.748;7.102;2022-10-19T13:01:14;9.63;;;2.88;;
32445;SDS011;18899;50.748;7.102;2022-10-19T13:03:49;7.90;;;2.53;;
32445;SDS011;18899;50.748;7.102;2022-10-19T13:09:00;7.07;;;2.70;;
32445;SDS011;18899;50.748;7.102;2022-10-19T13:11:28;9.90;;;3.13;;
32445;SDS011;18899;50.748;7.102;2022-10-19T13:14:05;5.65;;;2.45;;
32445;SDS011;18899;50.748;7.102;2022-10-19T13:17:00;10.40;;;2.50;;
32445;SDS011;18899;50.748;7.102;2022-10-19T13:19:27;6.68;;;2.38;;
32445;SDS011;18899;50.748;7.102;2022-10-19T13:21:54;8.27;;;2.65;;
32445;SDS011;18899;50.748;7.102;2022-10-19T13:38:18;7.43;;;3.03;;
32445;SDS011;18899;50.748;7.102;2022-10-19T13:43:17;9.00;;;2.90;;
32445;SDS011;18899;50.748;7.102;2022-10-19T13:57:15;6.40;;;2.88;;
32445;SDS011;18899;50.748;7.102;2022-10-19T14:05:27;6.47;;;2.53;;
32445;SDS011;18899;50.748;7.102;2022-10-19T14:11:16;7.40;;;2.40;;
32445;SDS011;18899;50.748;7.102;2022-10-19T14:13:44;10.75;;;3.15;;
32445;SDS011;18899;50.748;7.102;2022-10-19T14:16:30;6.30;;;2.67;;
32445;SDS011;18899;50.748;7.102;2022-10-19T14:18:55;6.80;;;3.10;;
32445;SDS011;18899;50.748;7.102;2022-10-19T14:21:28;6.18;;;2.38;;
32445;SDS011;18899;50.748;7.102;2022-10-19T14:23:55;6.03;;;2.42;;
32445;SDS011;18899;50.748;7.102;2022-10-19T14:26:22;5.40;;;2.65;;
32445;SDS011;18899;50.748;7.102;2022-10-19T14:28:50;5.50;;;2.85;;
32445;SDS011;18899;50.748;7.102;2022-10-19T14:31:19;8.77;;;2.85;;
32445;SDS011;18899;50.748;7.102;2022-10-19T14:33:49;9.05;;;2.20;;
32445;SDS011;18899;50.748;7.102;2022-10-19T14:36:18;4.95;;;2.70;;
32445;SDS011;18899;50.748;7.102;2022-10-19T14:38:45;5.55;;;2.50;;
32445;SDS011;18899;50.748;7.102;2022-10-19T14:41:35;5.82;;;2.70;;
32445;SDS011;18899;50.748;7.102;2022-10-19T14:44:17;9.93;;;2.10;;
32445;SDS011;18899;50.748;7.102;2022-10-19T14:47:00;7.43;;;2.90;;
32445;SDS011;18899;50.748;7.102;2022-10-19T14:49:26;3.78;;;1.88;;
32445;SDS011;18899;50.748;7.102;2022-10-19T14:51:55;7.97;;;2.47;;
32445;SDS011;18899;50.748;7.102;2022-10-19T14:57:24;7.78;;;2.50;;
32445;SDS011;18899;50.748;7.102;2022-10-19T14:59:49;8.25;;;2.60;;
32445;SDS011;18899;50.748;7.102;2022-10-19T15:04:48;6.05;;;2.50;;
32445;SDS011;18899;50.748;7.102;2022-10-19T15:07:25;7.63;;;2.40;;
32445;SDS011;18899;50.748;7.102;2022-10-19T15:10:23;5.70;;;2.58;;
32445;SDS011;18899;50.748;7.102;2022-10-19T15:12:55;6.88;;;2.22;;
32445;SDS011;18899;50.748;7.102;2022-10-19T15:15:25;6.68;;;2.10;;
32445;SDS011;18899;50.748;7.102;2022-10-19T15:18:05;4.47;;;2.15;;
32445;SDS011;18899;50.748;7.102;2022-10-19T15:20:31;5.32;;;2.58;;
32445;SDS011;18899;50.748;7.102;2022-10-19T15:23:00;11.75;;;2.88;;
32445;SDS011;18899;50.748;7.102;2022-10-19T15:25:35;3.65;;;1.88;;
32445;SDS011;18899;50.748;7.102;2022-10-19T15:28:17;7.10;;;2.15;;
32445;SDS011;18899;50.748;7.102;2022-10-19T15:30:44;5.18;;;2.38;;
32445;SDS011;18899;50.748;7.102;2022-10-19T15:33:22;10.38;;;2.22;;
32445;SDS011;18899;50.748;7.102;2022-10-19T15:35:48;4.95;;;2.55;;
32445;SDS011;18899;50.748;7.102;2022-10-19T15:38:22;8.02;;;2.35;;
32445;SDS011;18899;50.748;7.102;2022-10-19T15:40:57;5.93;;;2.47;;
32445;SDS011;18899;50.748;7.102;2022-10-19T15:46:01;7.28;;;2.42;;
32445;SDS011;18899;50.748;7.102;2022-10-19T15:49:49;5.18;;;2.70;;
32445;SDS011;18899;50.748;7.102;2022-10-19T15:51:45;11.45;;;2.83;;
32445;SDS011;18899;50.748;7.102;2022-10-19T15:54:13;6.28;;;2.67;;
32445;SDS011;18899;50.748;7.102;2022-10-19T15:56:41;7.13;;;2.75;;
32445;SDS011;18899;50.748;7.102;2022-10-19T15:59:10;4.78;;;2.58;;
32445;SDS011;18899;50.748;7.102;2022-10-19T16:01:37;8.23;;;2.38;;
32445;SDS011;18899;50.748;7.102;2022-10-19T16:04:03;6.70;;;2.55;;
32445;SDS011;18899;50.748;7.102;2022-10-19T16:06:29;5.22;;;2.15;;
32445;SDS011;18899;50.748;7.102;2022-10-19T16:08:56;8.30;;;3.03;;
32445;SDS011;18899;50.748;7.102;2022-10-19T16:11:23;5.40;;;2.65;;
32445;SDS011;18899;50.748;7.102;2022-10-19T16:13:49;5.13;;;2.33;;
32445;SDS011;18899;50.748;7.102;2022-10-19T16:16:17;5.18;;;2.60;;
32445;SDS011;18899;50.748;7.102;2022-10-19T16:18:49;5.03;;;2.47;;
32445;SDS011;18899;50.748;7.102;2022-10-19T16:21:15;7.15;;;2.60;;
32445;SDS011;18899;50.748;7.102;2022-10-19T16:23:41;6.18;;;2.58;;
32445;SDS011;18899;50.748;7.102;2022-10-19T16:26:07;7.72;;;2.80;;
32445;SDS011;18899;50.748;7.102;2022-10-19T16:28:32;8.55;;;3.03;;
32445;SDS011;18899;50.748;7.102;2022-10-19T16:30:58;9.45;;;2.88;;
32445;SDS011;18899;50.748;7.102;2022-10-19T16:33:23;7.75;;;2.75;;
32445;SDS011;18899;50.748;7.102;2022-10-19T16:35:49;7.90;;;2.92;;
32445;SDS011;18899;50.748;7.102;2022-10-19T16:38:14;11.18;;;3.00;;
32445;SDS011;18899;50.748;7.102;2022-10-19T16:40:40;6.07;;;3.10;;
32445;SDS011;18899;50.748;7.102;2022-10-19T16:43:06;6.05;;;2.78;;
32445;SDS011;18899;50.748;7.102;2022-10-19T16:45:32;8.80;;;3.00;;
32445;SDS011;18899;50.748;7.102;2022-10-19T16:47:58;8.05;;;2.92;;
32445;SDS011;18899;50.748;7.102;2022-10-19T16:50:23;6.22;;;2.63;;
32445;SDS011;18899;50.748;7.102;2022-10-19T16:53:02;4.38;;;2.50;;
32445;SDS011;18899;50.748;7.102;2022-10-19T16:55:29;4.70;;;2.42;;
32445;SDS011;18899;50.748;7.102;2022-10-19T16:57:55;7.82;;;3.35;;
32445;SDS011;18899;50.748;7.102;2022-10-19T17:00:20;11.50;;;3.10;;
32445;SDS011;18899;50.748;7.102;2022-10-19T17:02:46;7.38;;;3.50;;
32445;SDS011;18899;50.748;7.102;2022-10-19T17:05:11;9.73;;;3.60;;
32445;SDS011;18899;50.748;7.102;2022-10-19T17:07:37;7.50;;;3.45;;
32445;SDS011;18899;50.748;7.102;2022-10-19T17:10:03;6.88;;;3.08;;
32445;SDS011;18899;50.748;7.102;2022-10-19T17:12:29;6.13;;;2.85;;
32445;SDS011;18899;50.748;7.102;2022-10-19T17:14:54;10.13;;;3.25;;
32445;SDS011;18899;50.748;7.102;2022-10-19T17:17:20;6.95;;;3.25;;
32445;SDS011;18899;50.748;7.102;2022-10-19T17:19:45;6.95;;;2.97;;
32445;SDS011;18899;50.748;7.102;2022-10-19T17:22:12;13.85;;;3.88;;